createdAt,value
2019-04-30T00:01:17.022Z,4.53
2019-04-30T00:04:45.146Z,5.43
2019-04-30T00:07:58.416Z,6.20
2019-04-30T00:11:06.431Z,6.53
2019-04-30T00:14:15.562Z,5.33
2019-04-30T00:17:25.644Z,6.63
2019-04-30T00:20:37.043Z,5.07
2019-04-30T00:23:43.294Z,6.70
2019-04-30T00:26:52.594Z,5.93
2019-04-30T00:30:07.331Z,5.30
2019-04-30T00:33:15.285Z,4.30
2019-04-30T00:36:22.067Z,5.07
2019-04-30T00:39:30.811Z,4.80
2019-04-30T00:42:40.912Z,8.77
2019-04-30T00:45:49.608Z,5.47
2019-04-30T00:49:08.793Z,5.03
2019-04-30T00:52:08.513Z,6.13
2019-04-30T00:55:17.144Z,6.03
2019-04-30T00:58:36.065Z,6.23
2019-04-30T01:02:02.961Z,7.03
2019-04-30T01:05:16.136Z,5.87
2019-04-30T01:08:27.616Z,5.77
2019-04-30T01:11:35.524Z,6.43
2019-04-30T01:14:54.497Z,4.40
2019-04-30T01:18:03.064Z,6.37
2019-04-30T01:21:13.309Z,5.13
2019-04-30T01:24:23.488Z,6.63
2019-04-30T01:27:34.024Z,5.47
2019-04-30T01:30:43.353Z,6.97
2019-04-30T01:33:51.978Z,5.20
2019-04-30T01:37:00.603Z,7.10
2019-04-30T01:40:13.579Z,6.53
2019-04-30T01:43:23.193Z,6.63
2019-04-30T01:46:30.269Z,6.43
2019-04-30T01:49:42.891Z,8.80
2019-04-30T01:52:55.474Z,6.43
2019-04-30T01:56:21.955Z,5.73
2019-04-30T01:59:49.560Z,7.27
2019-04-30T02:02:59.259Z,8.07
2019-04-30T02:06:19.716Z,7.37
2019-04-30T02:09:28.753Z,10.53
2019-04-30T02:12:39.265Z,7.90
2019-04-30T02:15:49.274Z,7.40
2019-04-30T02:18:59.685Z,9.47
2019-04-30T02:22:09.522Z,7.90
2019-04-30T02:25:19.553Z,8.73
2019-04-30T02:28:29.017Z,8.43
2019-04-30T02:31:40.567Z,9.00
2019-04-30T02:34:55.799Z,8.70
2019-04-30T02:38:34.459Z,9.00
2019-04-30T02:41:44.380Z,9.37
2019-04-30T02:45:04.251Z,9.33
2019-04-30T02:48:13.412Z,8.67
2019-04-30T02:51:25.370Z,9.60
2019-04-30T02:54:35.550Z,8.53
2019-04-30T02:57:44.389Z,9.57
2019-04-30T03:00:53.101Z,9.70
2019-04-30T03:04:01.829Z,7.77
2019-04-30T03:07:10.473Z,10.27
2019-04-30T03:10:19.860Z,10.10
2019-04-30T03:13:29.947Z,12.90
2019-04-30T03:17:00.103Z,10.47
2019-04-30T03:20:45.989Z,10.93
2019-04-30T03:24:12.978Z,11.77
2019-04-30T03:27:24.586Z,10.13
2019-04-30T03:30:32.507Z,12.87
2019-04-30T03:33:42.611Z,11.17
2019-04-30T03:37:02.302Z,12.30
2019-04-30T03:40:13.148Z,13.60
2019-04-30T03:43:22.115Z,15.73
2019-04-30T03:46:30.712Z,14.37
2019-04-30T03:49:40.259Z,14.73
2019-04-30T03:53:00.781Z,16.27
2019-04-30T03:56:09.547Z,17.20
2019-04-30T03:59:19.954Z,16.97
2019-04-30T04:02:42.006Z,21.17
2019-04-30T04:05:55.707Z,18.47
2019-04-30T04:09:14.494Z,17.90
2019-04-30T04:12:44.625Z,18.13
2019-04-30T04:15:59.781Z,16.80
2019-04-30T04:19:19.621Z,18.43
2019-04-30T04:22:26.269Z,15.60
2019-04-30T04:25:35.005Z,15.83
2019-04-30T04:28:43.707Z,17.47
2019-04-30T04:31:52.442Z,17.13
2019-04-30T04:35:01.162Z,16.40
2019-04-30T04:38:12.261Z,16.40
2019-04-30T04:41:19.803Z,15.33
2019-04-30T04:44:29.496Z,17.10
2019-04-30T04:47:40.178Z,16.00
2019-04-30T04:50:50.191Z,15.47
2019-04-30T04:54:03.137Z,15.00
2019-04-30T04:57:17.653Z,14.53
2019-04-30T05:00:22.648Z,15.47
2019-04-30T05:03:34.419Z,15.80
2019-04-30T05:06:46.176Z,15.83
2019-04-30T05:09:54.790Z,17.10
2019-04-30T05:13:13.793Z,16.43
2019-04-30T05:16:22.469Z,16.10
2019-04-30T05:19:31.210Z,19.37
2019-04-30T05:22:41.499Z,18.27
2019-04-30T05:25:50.157Z,17.07
2019-04-30T05:28:59.440Z,17.03
2019-04-30T05:32:19.686Z,18.63
2019-04-30T05:35:31.110Z,19.27
2019-04-30T05:38:41.146Z,21.93
2019-04-30T05:41:49.897Z,19.77
2019-04-30T05:44:59.264Z,20.70
2019-04-30T05:48:08.949Z,28.57
2019-04-30T05:51:19.383Z,21.90
2019-04-30T05:54:29.150Z,23.07
2019-04-30T05:57:52.427Z,25.50
2019-04-30T06:00:49.918Z,22.03
2019-04-30T06:03:59.475Z,26.60
2019-04-30T06:07:08.610Z,22.93
2019-04-30T06:10:39.739Z,29.73
2019-04-30T06:14:04.267Z,30.47
2019-04-30T06:17:15.434Z,26.50
2019-04-30T06:20:24.232Z,27.73
2019-04-30T06:23:32.876Z,23.90
2019-04-30T06:26:41.626Z,24.77
2019-04-30T06:29:51.753Z,27.07
2019-04-30T06:33:02.449Z,25.90
2019-04-30T06:36:12.629Z,25.10
2019-04-30T06:39:21.421Z,29.10
2019-04-30T06:42:30.428Z,29.17
2019-04-30T06:45:38.983Z,31.10
2019-04-30T06:48:50.846Z,27.83
2019-04-30T06:51:58.822Z,27.23
2019-04-30T06:55:09.437Z,26.90
2019-04-30T06:58:29.141Z,29.97
2019-04-30T07:01:38.850Z,28.83
2019-04-30T07:04:49.111Z,29.27
2019-04-30T07:08:15.960Z,28.43
2019-04-30T07:11:39.091Z,24.87
2019-04-30T07:14:49.362Z,22.93
2019-04-30T07:17:59.192Z,24.23
2019-04-30T07:21:08.735Z,23.20
2019-04-30T07:24:20.783Z,21.20
2019-04-30T07:27:31.938Z,22.67
2019-04-30T07:30:39.497Z,21.53
2019-04-30T07:33:53.087Z,22.13
2019-04-30T07:37:11.817Z,19.57
2019-04-30T07:40:09.972Z,20.47
2019-04-30T07:43:29.021Z,19.60
2019-04-30T07:46:41.084Z,20.40
2019-04-30T07:49:52.902Z,18.37
2019-04-30T07:53:05.658Z,17.90
2019-04-30T07:56:24.104Z,17.70
2019-04-30T07:59:20.768Z,15.00
2019-04-30T08:02:36.731Z,14.67
2019-04-30T08:05:43.963Z,13.40
2019-04-30T08:08:57.299Z,12.20
2019-04-30T08:12:22.243Z,12.27
2019-04-30T08:15:24.788Z,10.53
2019-04-30T08:18:34.529Z,11.80
2019-04-30T08:21:54.714Z,10.67
2019-04-30T08:25:03.277Z,10.50
2019-04-30T08:28:11.971Z,11.70
2019-04-30T08:31:21.986Z,12.87
2019-04-30T08:34:41.016Z,11.63
2019-04-30T08:37:49.878Z,11.50
2019-04-30T08:41:00.762Z,11.30
2019-04-30T08:44:09.386Z,13.33
2019-04-30T08:47:20.948Z,12.60
2019-04-30T08:50:29.674Z,12.53
2019-04-30T08:53:49.241Z,12.87
2019-04-30T08:56:59.510Z,12.47
2019-04-30T09:00:11.844Z,12.17
2019-04-30T09:03:21.594Z,12.60
2019-04-30T09:06:30.634Z,13.30
2019-04-30T09:09:39.449Z,12.33
2019-04-30T09:12:51.893Z,12.33
2019-04-30T09:15:59.595Z,12.80
2019-04-30T09:19:09.775Z,11.00
2019-04-30T09:22:19.493Z,12.20
2019-04-30T09:25:28.874Z,11.20
2019-04-30T09:28:49.421Z,11.43
2019-04-30T09:31:59.459Z,12.00
2019-04-30T09:35:09.569Z,12.57
2019-04-30T09:38:19.526Z,10.83
2019-04-30T09:41:28.841Z,13.03
2019-04-30T09:44:39.011Z,13.03
2019-04-30T09:47:47.832Z,12.60
2019-04-30T09:50:56.915Z,13.07
2019-04-30T09:54:06.676Z,13.00
2019-04-30T09:57:15.713Z,14.33
2019-04-30T10:00:24.771Z,12.80
2019-04-30T10:03:34.263Z,14.53
2019-04-30T10:06:43.527Z,14.50
2019-04-30T10:10:02.876Z,16.80
2019-04-30T10:13:11.439Z,13.87
2019-04-30T10:16:33.332Z,14.27
2019-04-30T10:19:42.003Z,14.97
2019-04-30T10:22:50.644Z,14.63
2019-04-30T10:25:59.473Z,15.80
2019-04-30T10:29:08.311Z,14.00
2019-04-30T10:32:18.595Z,15.27
2019-04-30T10:35:28.574Z,14.80
2019-04-30T10:38:39.262Z,15.20
2019-04-30T10:41:47.778Z,14.60
2019-04-30T10:45:00.019Z,14.23
2019-04-30T10:48:06.828Z,14.43
2019-04-30T10:51:16.689Z,14.77
2019-04-30T10:54:28.917Z,14.13
2019-04-30T10:57:37.343Z,15.23
2019-04-30T11:00:47.081Z,13.30
2019-04-30T11:03:55.714Z,14.20
2019-04-30T11:07:04.748Z,14.80
2019-04-30T11:10:13.475Z,14.37
2019-04-30T11:13:22.231Z,15.27
2019-04-30T11:16:30.805Z,14.03
2019-04-30T11:19:39.608Z,14.77
2019-04-30T11:22:48.671Z,15.30
2019-04-30T11:25:59.635Z,13.67
2019-04-30T11:29:07.775Z,13.73
2019-04-30T11:32:22.630Z,14.10
2019-04-30T11:35:41.472Z,15.57
2019-04-30T11:38:50.181Z,13.97
2019-04-30T11:42:03.836Z,15.30
2019-04-30T11:45:15.228Z,14.43
2019-04-30T11:48:23.749Z,15.20
2019-04-30T11:51:32.482Z,14.47
2019-04-30T11:54:54.322Z,14.00
2019-04-30T11:58:02.831Z,15.87
2019-04-30T12:01:15.919Z,15.97
2019-04-30T12:04:24.569Z,16.83
2019-04-30T12:07:59.772Z,14.77
2019-04-30T12:11:31.309Z,14.98
2019-04-30T12:14:39.934Z,15.40
2019-04-30T12:17:48.714Z,16.00
2019-04-30T12:20:58.711Z,17.27
2019-04-30T12:24:07.348Z,15.80
2019-04-30T12:27:26.337Z,16.23
2019-04-30T12:30:36.094Z,16.43
2019-04-30T12:33:44.923Z,14.40
2019-04-30T12:36:53.531Z,17.70
2019-04-30T12:40:02.299Z,15.53
2019-04-30T12:43:10.997Z,16.50
2019-04-30T12:46:21.270Z,16.83
2019-04-30T12:49:46.608Z,16.50
2019-04-30T12:52:59.654Z,16.70
2019-04-30T12:56:38.083Z,18.30
2019-04-30T12:59:46.877Z,18.10
2019-04-30T13:02:55.459Z,17.53
2019-04-30T13:06:06.092Z,18.17
2019-04-30T13:09:15.924Z,17.17
2019-04-30T13:12:25.579Z,19.10
2019-04-30T13:15:34.413Z,19.33
2019-04-30T13:18:44.370Z,20.43
2019-04-30T13:21:52.952Z,20.50
2019-04-30T13:25:12.867Z,21.00
2019-04-30T13:28:23.220Z,22.57
2019-04-30T13:31:31.821Z,21.07
2019-04-30T13:34:48.694Z,20.37
2019-04-30T13:38:07.301Z,22.33
2019-04-30T13:41:34.853Z,24.03
2019-04-30T13:44:45.224Z,20.67
2019-04-30T13:47:53.965Z,22.87
2019-04-30T13:51:02.690Z,23.50
2019-04-30T13:54:11.567Z,22.97
2019-04-30T13:57:34.082Z,24.97
2019-04-30T14:00:41.485Z,23.97
2019-04-30T14:03:59.022Z,23.20
2019-04-30T14:07:18.780Z,22.43
2019-04-30T14:10:29.429Z,24.57
2019-04-30T14:13:39.821Z,25.40
2019-04-30T14:16:48.554Z,26.50
2019-04-30T14:19:55.844Z,26.67
2019-04-30T14:23:05.977Z,25.67
2019-04-30T14:26:19.275Z,23.67
2019-04-30T14:29:25.616Z,24.13
2019-04-30T14:32:34.255Z,23.13
2019-04-30T14:35:42.906Z,23.97
2019-04-30T14:38:51.463Z,25.17
2019-04-30T14:42:02.205Z,23.60
2019-04-30T14:45:37.216Z,22.23
2019-04-30T14:48:51.201Z,21.43
2019-04-30T14:52:00.780Z,23.20
2019-04-30T14:55:29.356Z,24.33
2019-04-30T14:59:13.572Z,29.60
2019-04-30T15:02:30.305Z,22.43
2019-04-30T15:05:48.187Z,22.47
2019-04-30T15:08:49.516Z,23.47
2019-04-30T15:11:58.677Z,21.70
2019-04-30T15:15:09.392Z,23.07
2019-04-30T15:18:29.029Z,22.67
2019-04-30T15:21:36.412Z,23.30
2019-04-30T15:24:59.134Z,23.43
2019-04-30T15:28:17.638Z,22.17
2019-04-30T15:31:26.602Z,22.70
2019-04-30T15:34:35.386Z,25.13
2019-04-30T15:37:44.320Z,23.57
2019-04-30T15:41:03.697Z,24.47
2019-04-30T15:44:45.422Z,25.00
2019-04-30T15:47:53.308Z,25.20
2019-04-30T15:51:28.176Z,24.47
2019-04-30T15:54:36.868Z,23.90
2019-04-30T15:58:03.703Z,24.50
2019-04-30T16:02:53.435Z,25.90
2019-04-30T16:05:54.569Z,25.27
2019-04-30T16:09:05.813Z,25.37
2019-04-30T16:12:50.536Z,25.10
2019-04-30T16:16:19.210Z,25.03
2019-04-30T16:19:28.807Z,26.57
2019-04-30T16:22:39.974Z,26.03
2019-04-30T16:25:48.821Z,25.43
2019-04-30T16:28:58.613Z,24.43
2019-04-30T16:32:09.273Z,23.10
2019-04-30T16:35:19.719Z,25.27
2019-04-30T16:38:28.936Z,26.27
2019-04-30T16:41:49.572Z,26.90
2019-04-30T16:45:00.558Z,26.93
2019-04-30T16:48:09.827Z,27.40
2019-04-30T16:51:19.423Z,25.47
2019-04-30T16:54:29.233Z,26.13
2019-04-30T16:57:39.648Z,26.37
2019-04-30T17:00:49.266Z,25.17
2019-04-30T17:04:39.044Z,26.70
2019-04-30T17:08:13.837Z,26.33
2019-04-30T17:11:38.742Z,25.57
2019-04-30T17:14:49.281Z,28.17
2019-04-30T17:17:58.663Z,26.57
2019-04-30T17:21:09.739Z,28.43
2019-04-30T17:24:19.394Z,28.10
2019-04-30T17:27:29.367Z,29.50
2019-04-30T17:30:39.299Z,29.20
2019-04-30T17:33:48.376Z,27.60
2019-04-30T17:36:59.043Z,26.10
2019-04-30T17:40:19.430Z,28.13
2019-04-30T17:43:28.009Z,29.47
2019-04-30T17:46:38.534Z,28.20
2019-04-30T17:49:48.437Z,32.33
2019-04-30T17:53:09.685Z,29.67
2019-04-30T17:56:18.390Z,29.13
2019-04-30T17:59:27.087Z,28.20
2019-04-30T18:02:35.838Z,28.67
2019-04-30T18:05:46.374Z,30.33
2019-04-30T18:08:56.122Z,27.67
2019-04-30T18:12:04.750Z,25.77
2019-04-30T18:15:18.524Z,24.97
2019-04-30T18:18:33.352Z,27.00
2019-04-30T18:22:10.772Z,26.07
2019-04-30T18:25:30.830Z,26.17
2019-04-30T18:28:38.009Z,24.83
2019-04-30T18:31:46.612Z,22.80
2019-04-30T18:34:55.199Z,24.33
2019-04-30T18:38:03.770Z,23.20
2019-04-30T18:41:12.440Z,24.53
2019-04-30T18:44:20.960Z,24.23
2019-04-30T18:47:39.994Z,24.63
2019-04-30T18:50:59.067Z,23.33
2019-04-30T18:54:07.707Z,24.97
2019-04-30T18:57:16.349Z,25.13
2019-04-30T19:00:39.532Z,24.13
2019-04-30T19:03:49.238Z,25.23
2019-04-30T19:07:01.543Z,23.80
2019-04-30T19:10:19.957Z,25.70
2019-04-30T19:13:47.241Z,25.03
2019-04-30T19:17:19.457Z,25.83
2019-04-30T19:20:46.734Z,26.53
2019-04-30T19:24:08.627Z,26.93
2019-04-30T19:27:18.650Z,25.87
2019-04-30T19:30:39.023Z,25.70
2019-04-30T19:33:48.946Z,24.83
2019-04-30T19:36:58.568Z,26.23
2019-04-30T19:40:18.990Z,24.40
2019-04-30T19:43:28.562Z,24.53
2019-04-30T19:46:48.767Z,23.87
2019-04-30T19:49:59.493Z,23.00
2019-04-30T19:53:10.063Z,23.20
2019-04-30T19:56:20.603Z,26.27
2019-04-30T19:59:29.471Z,25.50
2019-04-30T20:02:48.727Z,24.40
2019-04-30T20:06:09.033Z,24.97
2019-04-30T20:09:19.379Z,24.40
2019-04-30T20:12:29.041Z,27.03
2019-04-30T20:15:39.291Z,27.50
2019-04-30T20:18:49.105Z,27.53
2019-04-30T20:21:59.503Z,26.57
2019-04-30T20:25:09.207Z,25.43
2019-04-30T20:28:38.581Z,27.90
2019-04-30T20:31:38.840Z,26.57
2019-04-30T20:34:48.925Z,28.60
2019-04-30T20:38:20.039Z,27.43
2019-04-30T20:41:29.294Z,28.73
2019-04-30T20:44:38.959Z,32.33
2019-04-30T20:47:49.589Z,28.97
2019-04-30T20:51:01.054Z,30.53
2019-04-30T20:54:09.139Z,31.27
2019-04-30T20:57:19.848Z,32.37
2019-04-30T21:00:28.000Z,30.00
2019-04-30T21:03:36.516Z,31.77
2019-04-30T21:06:45.034Z,30.40
2019-04-30T21:10:04.034Z,29.27
2019-04-30T21:13:12.701Z,28.50
2019-04-30T21:16:21.224Z,32.67
2019-04-30T21:19:29.945Z,38.43
2019-04-30T21:22:38.859Z,40.77
2019-04-30T21:25:49.153Z,46.00
2019-04-30T21:29:10.412Z,46.47
2019-04-30T21:32:32.757Z,45.33
2019-04-30T21:35:50.715Z,42.37
2019-04-30T21:38:59.505Z,44.67
2019-04-30T21:42:09.270Z,43.40
2019-04-30T21:45:18.436Z,43.20
2019-04-30T21:48:28.718Z,43.47
2019-04-30T21:51:40.000Z,43.93
2019-04-30T21:54:48.696Z,43.63
2019-04-30T21:57:59.258Z,44.23
2019-04-30T22:01:22.735Z,42.47
2019-04-30T22:04:41.890Z,43.70
2019-04-30T22:07:51.196Z,44.00
2019-04-30T22:11:10.224Z,40.63
2019-04-30T22:14:18.844Z,37.07
2019-04-30T22:17:29.180Z,37.33
2019-04-30T22:20:38.893Z,34.90
2019-04-30T22:23:47.501Z,36.80
2019-04-30T22:27:06.276Z,33.17
2019-04-30T22:30:15.056Z,34.37
2019-04-30T22:33:23.594Z,38.07
2019-04-30T22:36:38.650Z,36.57
2019-04-30T22:40:01.589Z,33.80
2019-04-30T22:43:10.262Z,32.77
2019-04-30T22:46:19.541Z,31.77
2019-04-30T22:49:28.259Z,30.10
2019-04-30T22:52:36.922Z,31.00
2019-04-30T22:55:45.440Z,30.70
2019-04-30T22:58:53.941Z,33.50
2019-04-30T23:02:34.835Z,32.63
2019-04-30T23:05:43.565Z,33.97
2019-04-30T23:08:52.185Z,34.37
2019-04-30T23:12:00.807Z,31.07
2019-04-30T23:15:10.714Z,29.97
2019-04-30T23:18:32.167Z,31.73
2019-04-30T23:21:40.335Z,31.20
2019-04-30T23:24:48.843Z,31.07
2019-04-30T23:27:57.399Z,29.93
2019-04-30T23:31:05.994Z,32.47
2019-04-30T23:34:18.077Z,28.23
2019-04-30T23:37:36.455Z,28.50
2019-04-30T23:40:50.620Z,28.87
2019-04-30T23:43:59.649Z,26.23
2019-04-30T23:47:08.168Z,27.03
2019-04-30T23:50:27.140Z,27.40
2019-04-30T23:53:35.971Z,27.53
2019-04-30T23:56:44.707Z,26.53
2019-04-30T23:59:53.366Z,24.27
